Terminal Aerodrome Forecast
Issued by NWS Charleston, WV

Current Version | Previous Version | Text Only | Print | Product List | Glossary Off
Versions: 1 2 3 4 5 6 7 8 9 10 11 12 13 14 15 16 17 18 19 20 21 22 23 24 25 26

813
FTUS41 KRLX 220858 AAA
TAFPKB
TAF AMD
KPKB 220858Z 2209/2306 19005KT P6SM SCT250
     FM230400 18006KT P6SM -SHRA OVC050
     FM230500 19008KT 3SM SHRA OVC025=

USA.gov is the U.S. government's official web portal to all federal, state and local government web resources and services.